Orange Grove, Mississippi
Current Conditions -  °F | °C
As of 10:53 PM on Friday 21 Nov 2014 (Local Time) from KGPT Reporting Station
Clear Clear  
Wind Chill: 53°   Ceiling: Unl
Heat Index: 53°   Visibility: 9mi
Dew Point: 48°   Wind: 3mph
Humidity: 83%   Direction: 60°ENE
Pressure: 30.27"   Gusts: NA
Location:  30.45°N, 89.08°W
Report Text: KGPT 220453Z AUTO 06003KT 9SM CLR 12/09 A3027 RMK AO2 SLP250 T01170089
Loading
Personal Weather Stations






























Interactive Weather Map New forecast layout! Learn more

10-Day Weather Forecast

Advertisements
Track Severe Weather on mobile